Bastogne — ONHG — position and weather

sailwx.info

Track history (hours):
 
Tides and Currents Weather Stations Pressure Air Temp Water Temp Dewpoint Dewpoint Depression Visibility Wind Speed Wind Dir Waves Ship Positions

Bastogne

Last reported at 2017-Oct-17 00:55 UTC. Time now 2017-Oct-17 01:03 UTC.
Position N 47°36' W 007°22'.

Length 175 m; draft 8.7 m.

Type: Tanker. MMSI: 205612000.

Date/timePositionNaut miles runAvg speedWind from/ knotsBaromVisibWave heightAir tempDewpointWater temp
2017-Oct-17 00:55N 47°36' W 007°22'4410.7
2017-Oct-16 20:50N 47°60' W 006°28'411.1
2017-Oct-16 20:26N 48°02' W 006°22'104 8.8
2017-Oct-16 08:32N 49°35' W 005°10'013.4
2017-Oct-16 08:30N 49°35' W 005°10'813.3
2017-Oct-16 07:54N 49°43' W 005°09'1714.7
2017-Oct-16 06:43N 49°50' W 005°34'514.6
2017-Oct-16 06:20N 49°52' W 005°42'1114.1
2017-Oct-16 05:32N 49°55' W 005°59'213.8
2017-Oct-16 05:23N 49°57' W 006°01'714.5
2017-Oct-16 04:52N 50°04' W 006°01'514.4
2017-Oct-16 04:30N 50°10' W 006°01'714.6
2017-Oct-16 04:00N 50°17' W 006°01'714.6
2017-Oct-16 03:30N 50°24' W 005°60'714.9
2017-Oct-16 03:01N 50°31' W 005°55'815.1
2017-Oct-16 02:30N 50°38' W 005°51'815.3
2017-Oct-16 02:00N 50°45' W 005°46'815.6
2017-Oct-16 01:30N 50°52' W 005°42'1315.5
2017-Oct-16 00:40N 51°05' W 005°34'315.6
2017-Oct-16 00:31N 51°07' W 005°33'815.8
2017-Oct-16 00:00N 51°14' W 005°28'815.9
2017-Oct-15 23:31N 51°21' W 005°23'815.9
2017-Oct-15 23:01N 51°29' W 005°18'816.0
2017-Oct-15 22:31N 51°36' W 005°13'612.3
2017-Oct-15 22:00N 51°42' W 005°08'4 8.6
2017-Oct-15 21:30N 51°42' W 005°02'0 0.2
2017-Oct-15 20:59N 51°42' W 005°02'0 0.0
2017-Oct-15 20:29N 51°42' W 005°02'0 0.0
2017-Oct-15 19:59N 51°42' W 005°02'0 0.0
2017-Oct-15 19:26N 51°42' W 005°02'0 0.0
2017-Oct-15 18:59N 51°42' W 005°02'0 0.0
2017-Oct-15 18:29N 51°42' W 005°02'0 0.0
2017-Oct-15 17:59N 51°42' W 005°02'0 0.0
2017-Oct-15 17:29N 51°42' W 005°02'0 0.0
2017-Oct-15 16:59N 51°42' W 005°02'0 0.0
2017-Oct-15 16:29N 51°42' W 005°02'0 0.0
2017-Oct-15 15:59N 51°42' W 005°02'0 0.0
2017-Oct-15 15:29N 51°42' W 005°02'0 0.0
2017-Oct-15 14:53N 51°42' W 005°02'0 0.0
2017-Oct-15 13:59N 51°42' W 005°02'0 0.0
2017-Oct-15 13:29N 51°42' W 005°02'0 0.0
2017-Oct-15 12:59N 51°42' W 005°02'0 0.0
2017-Oct-15 12:29N 51°42' W 005°02'0 0.0
2017-Oct-15 11:56N 51°42' W 005°02'0 0.0
2017-Oct-15 11:29N 51°42' W 005°02'0 0.0
2017-Oct-15 10:59N 51°42' W 005°01'0 0.0
2017-Oct-15 10:29N 51°42' W 005°02'0 0.0
2017-Oct-15 09:59N 51°42' W 005°01'0 0.0
2017-Oct-15 09:29N 51°42' W 005°02'0 0.0
2017-Oct-15 08:59N 51°42' W 005°02'0 0.0
2017-Oct-15 08:29N 51°42' W 005°02'0 0.0
2017-Oct-15 07:53N 51°42' W 005°02'0 0.0
2017-Oct-15 07:26N 51°42' W 005°02'0 0.0
2017-Oct-15 06:56N 51°42' W 005°02'0 0.0
2017-Oct-15 06:29N 51°42' W 005°02'0 0.0
2017-Oct-15 05:59N 51°42' W 005°02'0 0.0
2017-Oct-15 05:29N 51°42' W 005°02'0 0.0
2017-Oct-15 04:56N 51°42' W 005°02'0 0.0
2017-Oct-15 04:29N 51°42' W 005°02'0 0.0
2017-Oct-15 03:59N 51°42' W 005°02'0 0.0
2017-Oct-15 03:31N 51°42' W 005°02'1 2.2
2017-Oct-15 03:01N 51°42' W 005°03'4 7.9
2017-Oct-15 02:31N 51°41' W 005°09'510.0
2017-Oct-15 02:00N 51°37' W 005°14'4 6.9
2017-Oct-15 01:30N 51°34' W 005°18'2 4.9
2017-Oct-15 01:00N 51°33' W 005°21'1 2.4
2017-Oct-15 00:30N 51°34' W 005°23'3 5.1
2017-Oct-15 00:00N 51°32' W 005°22'3 5.3
2017-Oct-14 23:30N 51°29' W 005°22'5 9.8
2017-Oct-14 22:59N 51°24' W 005°22'815.7
2017-Oct-14 22:30N 51°16' W 005°24'816.2
2017-Oct-14 22:00N 51°09' W 005°28'816.0
2017-Oct-14 21:30N 51°01' W 005°32'816.0
2017-Oct-14 20:59N 50°53' W 005°36'816.0
2017-Oct-14 20:30N 50°46' W 005°39'815.9
2017-Oct-14 20:00N 50°38' W 005°43'815.9
2017-Oct-14 19:30N 50°31' W 005°47'815.6
2017-Oct-14 19:00N 50°23' W 005°51'815.2
2017-Oct-14 18:30N 50°16' W 005°53'815.2
2017-Oct-14 18:00N 50°08' W 005°53'815.4
2017-Oct-14 17:30N 50°01' W 005°53'814.8
2017-Oct-14 16:59N 49°53' W 005°50'715.5
2017-Oct-14 16:30N 49°53' W 005°38'815.3
2017-Oct-14 16:00N 49°53' W 005°26'815.1
2017-Oct-14 15:30N 49°53' W 005°14'815.4
2017-Oct-14 15:00N 49°53' W 005°02'815.4
2017-Oct-14 14:30N 49°53' W 004°50'815.3
2017-Oct-14 14:00N 49°54' W 004°39'815.1
2017-Oct-14 13:30N 49°55' W 004°27'815.2
2017-Oct-14 13:00N 49°55' W 004°15'815.2
2017-Oct-14 12:30N 49°55' W 004°03'815.1
2017-Oct-14 12:00N 49°56' W 003°52'815.1
2017-Oct-14 11:30N 49°57' W 003°40'815.6
2017-Oct-14 11:00N 49°58' W 003°28'816.0
2017-Oct-14 10:30N 49°58' W 003°16'816.3
2017-Oct-14 10:00N 49°58' W 003°03'816.5
2017-Oct-14 09:30N 49°60' W 002°50'917.2
2017-Oct-14 09:00N 50°03' W 002°38'917.7
2017-Oct-14 08:28N 50°05' W 002°24'817.7
2017-Oct-14 08:00N 50°08' W 002°11'1017.5
2017-Oct-14 07:25N 50°10' W 001°56'817.1
2017-Oct-14 06:58N 50°12' W 001°44'816.7
2017-Oct-14 06:31N 50°15' W 001°33'816.2
2017-Oct-14 06:00N 50°17' W 001°20'815.7
2017-Oct-14 05:31N 50°19' W 001°09'815.1
2017-Oct-14 04:57N 50°21' W 000°56'614.6
2017-Oct-14 04:30N 50°23' W 000°46'714.3
2017-Oct-14 04:00N 50°25' W 000°35'714.4
2017-Oct-14 03:30N 50°27' W 000°25'714.6
2017-Oct-14 03:00N 50°29' W 000°14'714.7
2017-Oct-14 02:30N 50°31' W 000°02'714.8
2017-Oct-14 02:00N 50°33' E 000°09'815.1
2017-Oct-14 01:30N 50°35' E 000°20'815.4
2017-Oct-14 01:00N 50°38' E 000°32'815.8
2017-Oct-14 00:30N 50°42' E 000°42'816.3
2017-Oct-14 00:00N 50°46' E 000°53'816.5
2017-Oct-13 23:30N 50°52' E 001°03'816.5
2017-Oct-13 23:00N 50°57' E 001°13'816.2
2017-Oct-13 22:30N 51°02' E 001°23'815.7
2017-Oct-13 22:00N 51°07' E 001°33'714.8
2017-Oct-13 21:30N 51°12' E 001°42'714.3
2017-Oct-13 21:00N 51°17' E 001°49'714.2
2017-Oct-13 20:30N 51°24' E 001°54'714.1
2017-Oct-13 20:00N 51°30' E 001°60'714.1
2017-Oct-13 19:30N 51°35' E 002°07'714.2
2017-Oct-13 19:00N 51°40' E 002°15'1114.3
2017-Oct-13 18:16N 51°48' E 002°27'414.4
2017-Oct-13 17:59N 51°51' E 002°31'714.9
2017-Oct-13 17:30N 51°58' E 002°36'16313.9
2017-Oct-13 05:46N 54°28' E 000°49'414.8
2017-Oct-13 05:30N 54°30' E 000°44'1914.9
2017-Oct-13 04:14N 54°43' E 000°20'414.8
2017-Oct-13 03:58N 54°46' E 000°15'714.7
2017-Oct-13 03:30N 54°51' E 000°06'3614.8
2017-Oct-13 01:05N 55°15' W 000°40'814.9
2017-Oct-13 00:34N 55°20' W 000°50'114.8
2017-Oct-13 00:30N 55°21' W 000°51'915.0
2017-Oct-12 23:54N 55°27' W 001°03'615.4
2017-Oct-12 23:30N 55°31' W 001°11'815.5
2017-Oct-12 23:00N 55°36' W 001°21'815.8
2017-Oct-12 22:30N 55°42' W 001°31'815.8
2017-Oct-12 22:00N 55°47' W 001°41'816.1
2017-Oct-12 21:30N 55°53' W 001°52'816.1
2017-Oct-12 21:00N 55°58' W 002°03'816.4
2017-Oct-12 20:30N 56°03' W 002°14'815.9
2017-Oct-12 20:00N 56°06' W 002°28'816.3
2017-Oct-12 19:30N 56°06' W 002°42'816.1
2017-Oct-12 19:00N 56°04' W 002°56'612.1
2017-Oct-12 18:30N 56°03' W 003°07'4 8.5
2017-Oct-12 18:00N 56°02' W 003°14'2 0.3
2017-Oct-12 08:41N 56°02' W 003°19'0 0.0
2017-Oct-12 05:23N 56°02' W 003°19'0 0.0
2017-Oct-12 04:53N 56°02' W 003°19'0 0.0
2017-Oct-12 04:23N 56°02' W 003°19'0 0.0
2017-Oct-12 03:59N 56°02' W 003°19'0 0.0
2017-Oct-12 03:20N 56°02' W 003°19'0 0.0
2017-Oct-12 02:59N 56°02' W 003°19'0 0.0
2017-Oct-12 02:17N 56°02' W 003°19'1 0.0
2017-Oct-11 00:00N 56°01' W 003°18'4 8.1
2017-Oct-10 23:30N 56°03' W 003°11'4 8.7
2017-Oct-10 23:00N 56°05' W 003°05'2 3.4
2017-Oct-10 22:30N 56°07' W 003°04'0 0.3
2017-Oct-10 22:00N 56°07' W 003°04'0 0.0
2017-Oct-10 21:30N 56°07' W 003°04'0 0.0
2017-Oct-10 21:00N 56°07' W 003°04'0 0.0
2017-Oct-10 20:30N 56°07' W 003°04'0 0.0
2017-Oct-10 20:00N 56°07' W 003°04'0 0.0
2017-Oct-10 19:30N 56°07' W 003°04'0 0.0
2017-Oct-10 19:00N 56°07' W 003°04'0 0.0
2017-Oct-10 18:30N 56°07' W 003°04'0 0.0
2017-Oct-10 18:00N 56°07' W 003°04'0 0.0
2017-Oct-10 17:30N 56°07' W 003°04'0 0.0
2017-Oct-10 17:00N 56°07' W 003°04'0 0.0
2017-Oct-10 16:30N 56°07' W 003°04'0 0.1
2017-Oct-10 16:00N 56°07' W 003°04'0 0.0
2017-Oct-10 15:30N 56°07' W 003°04'0 0.0
2017-Oct-10 15:00N 56°07' W 003°04'0 0.0
2017-Oct-10 14:00N 56°07' W 003°04'0 0.0
2017-Oct-10 13:30N 56°07' W 003°04'0 0.0
2017-Oct-10 13:00N 56°07' W 003°04'0 0.0
2017-Oct-10 12:30N 56°07' W 003°04'0 0.0
2017-Oct-10 12:00N 56°07' W 003°04'0 0.0
2017-Oct-10 11:30N 56°07' W 003°04'0 0.0
2017-Oct-10 11:00N 56°07' W 003°04'0 0.0
2017-Oct-10 10:30N 56°07' W 003°04'0 0.1
2017-Oct-10 10:00N 56°07' W 003°04'0 0.0
2017-Oct-10 09:30N 56°07' W 003°04'0 0.0
2017-Oct-10 09:00N 56°07' W 003°04'0 0.0
2017-Oct-10 08:30N 56°07' W 003°04'0 0.0
2017-Oct-10 08:00N 56°07' W 003°04'0 0.0
2017-Oct-10 07:27N 56°07' W 003°04'0 0.0
2017-Oct-10 07:00N 56°07' W 003°04'0 0.1
2017-Oct-10 06:30N 56°07' W 003°04'0 0.0
2017-Oct-10 06:00N 56°07' W 003°04'0 0.1
2017-Oct-10 05:30N 56°07' W 003°04'0 0.0
2017-Oct-10 05:00N 56°07' W 003°04'0 0.1
2017-Oct-10 04:30N 56°07' W 003°04'0 0.0
2017-Oct-10 04:00N 56°07' W 003°04'0 0.1
2017-Oct-10 03:30N 56°07' W 003°04'0 0.0
2017-Oct-10 03:00N 56°07' W 003°04'0 0.0
2017-Oct-10 02:30N 56°07' W 003°04'0 0.0
2017-Oct-10 02:00N 56°07' W 003°04'0 0.0
2017-Oct-10 01:30N 56°07' W 003°04'0 0.0
2017-Oct-10 01:00N 56°07' W 003°04'0 0.0
2017-Oct-10 00:30N 56°07' W 003°04'0 0.0
2017-Oct-10 00:00N 56°07' W 003°04'0 0.0
2017-Oct-09 23:30N 56°07' W 003°04'0 0.0
2017-Oct-09 23:00N 56°07' W 003°04'0 0.1
2017-Oct-09 22:30N 56°07' W 003°04'0 0.1
2017-Oct-09 22:00N 56°07' W 003°04'0 0.0
2017-Oct-09 21:30N 56°07' W 003°04'0 0.1
2017-Oct-09 21:00N 56°07' W 003°04'0 0.0
2017-Oct-09 20:30N 56°07' W 003°04'0 0.0
2017-Oct-09 20:00N 56°07' W 003°04'0 0.0
2017-Oct-09 19:30N 56°07' W 003°04'0 0.0
2017-Oct-09 19:00N 56°07' W 003°04'0 0.0
2017-Oct-09 18:30N 56°07' W 003°04'0 0.0
2017-Oct-09 18:00N 56°07' W 003°04'0 0.0
2017-Oct-09 17:30N 56°07' W 003°04'0 0.0
2017-Oct-09 17:00N 56°07' W 003°04'0 0.1
2017-Oct-09 16:30N 56°07' W 003°04'0 0.0
2017-Oct-09 16:00N 56°07' W 003°04'0 0.0
2017-Oct-09 15:30N 56°07' W 003°04'0 0.0
2017-Oct-09 15:00N 56°07' W 003°04'0 0.0
2017-Oct-09 14:30N 56°07' W 003°04'0 0.1
2017-Oct-09 14:00N 56°07' W 003°04'0 0.1
2017-Oct-09 13:30N 56°07' W 003°04'0 0.0
2017-Oct-09 13:00N 56°07' W 003°04'0 0.0
2017-Oct-09 12:30N 56°07' W 003°04'0 0.0
2017-Oct-09 12:00N 56°07' W 003°04'0 0.0
2017-Oct-09 11:30N 56°07' W 003°04'0 0.0
2017-Oct-09 11:00N 56°07' W 003°04'0 0.0
2017-Oct-09 10:30N 56°07' W 003°04'0 0.0
2017-Oct-09 10:00N 56°07' W 003°04'0 0.0
2017-Oct-09 09:30N 56°07' W 003°04'0 0.0
2017-Oct-09 09:00N 56°07' W 003°04'0 0.0
2017-Oct-09 08:30N 56°07' W 003°04'0 0.0
2017-Oct-09 08:00N 56°07' W 003°04'0 0.0
2017-Oct-09 07:30N 56°07' W 003°04'0 0.0
2017-Oct-09 07:00N 56°07' W 003°04'0 0.0
2017-Oct-09 06:30N 56°07' W 003°04'0 0.0
2017-Oct-09 06:00N 56°07' W 003°04'0 0.0
2017-Oct-09 05:30N 56°07' W 003°04'0 0.0
2017-Oct-09 05:00N 56°07' W 003°04'0 0.0
2017-Oct-09 04:30N 56°07' W 003°04'0 0.0
2017-Oct-09 04:00N 56°07' W 003°04'0 0.0
2017-Oct-09 03:30N 56°07' W 003°04'0 0.0
2017-Oct-09 03:00N 56°07' W 003°04'0 0.0
2017-Oct-09 02:30N 56°07' W 003°04'0 0.1
2017-Oct-09 02:00N 56°07' W 003°04'0 0.2
2017-Oct-09 01:30N 56°07' W 003°05'0 0.1
2017-Oct-09 01:00N 56°07' W 003°05'0 0.1
2017-Oct-09 00:30N 56°07' W 003°05'0 0.3
2017-Oct-09 00:00N 56°07' W 003°04'0 0.0
2017-Oct-08 23:30N 56°07' W 003°04'0 0.0
2017-Oct-08 23:00N 56°07' W 003°04'0 0.1
2017-Oct-08 22:30N 56°07' W 003°04'0 0.0
2017-Oct-08 22:00N 56°07' W 003°04'0 0.0
2017-Oct-08 21:30N 56°07' W 003°04'0 0.0
2017-Oct-08 21:00N 56°07' W 003°04'0 0.0
2017-Oct-08 20:30N 56°07' W 003°04'0 0.0
2017-Oct-08 20:00N 56°07' W 003°04'0 0.0
2017-Oct-08 19:30N 56°07' W 003°04'0 0.0
2017-Oct-08 19:00N 56°07' W 003°04'0 0.0
2017-Oct-08 18:30N 56°07' W 003°04'0 0.0
2017-Oct-08 18:00N 56°07' W 003°04'0 0.0
2017-Oct-08 17:30N 56°07' W 003°04'0 0.0
2017-Oct-08 17:00N 56°07' W 003°04'0 0.0
2017-Oct-08 16:30N 56°07' W 003°04'0 0.0
2017-Oct-08 16:00N 56°07' W 003°04'0 0.0
2017-Oct-08 15:30N 56°07' W 003°04'0 0.1
2017-Oct-08 15:00N 56°07' W 003°04'0 0.1
2017-Oct-08 14:30N 56°07' W 003°04'0 0.0
2017-Oct-08 14:00N 56°07' W 003°04'0 0.1
2017-Oct-08 13:30N 56°07' W 003°04'0 0.1
2017-Oct-08 13:00N 56°07' W 003°04'0 0.0
2017-Oct-08 12:30N 56°07' W 003°04'0 0.2
2017-Oct-08 12:00N 56°07' W 003°04'0 0.1
2017-Oct-08 11:30N 56°07' W 003°04'0 0.1
2017-Oct-08 11:00N 56°07' W 003°04'0 0.0
2017-Oct-08 10:30N 56°07' W 003°04'0 0.1
2017-Oct-08 10:00N 56°07' W 003°04'0 0.1
2017-Oct-08 09:30N 56°07' W 003°04'0 0.0
2017-Oct-08 09:00N 56°07' W 003°04'0 0.0
2017-Oct-08 08:30N 56°07' W 003°04'0 0.0
2017-Oct-08 08:00N 56°07' W 003°04'0 0.0
2017-Oct-08 07:30N 56°07' W 003°04'0 0.0
2017-Oct-08 07:00N 56°07' W 003°04'0 0.0
2017-Oct-08 06:30N 56°07' W 003°04'0 0.0
2017-Oct-08 06:00N 56°07' W 003°04'0 0.0
2017-Oct-08 05:30N 56°07' W 003°04'0 0.0
2017-Oct-08 05:00N 56°07' W 003°04'0 0.0
2017-Oct-08 04:30N 56°07' W 003°04'0 0.0
2017-Oct-08 04:00N 56°07' W 003°04'0 0.0
2017-Oct-08 03:27N 56°07' W 003°04'0 0.0
2017-Oct-08 03:00N 56°07' W 003°04'0 0.1
2017-Oct-08 02:30N 56°07' W 003°04'0 0.1
2017-Oct-08 02:00N 56°07' W 003°04'0 0.1
2017-Oct-08 01:30N 56°07' W 003°04'0 0.0
2017-Oct-08 01:00N 56°07' W 003°04'0 0.0
2017-Oct-08 00:30N 56°07' W 003°04'0 0.2
2017-Oct-08 00:00N 56°07' W 003°04'0 0.1
2017-Oct-07 23:30N 56°07' W 003°04'0 0.3
2017-Oct-07 23:00N 56°07' W 003°04'0 0.1
2017-Oct-07 22:30N 56°07' W 003°04'0 0.1
2017-Oct-07 22:00N 56°07' W 003°04'0 0.0
2017-Oct-07 21:30N 56°07' W 003°04'0 0.0
2017-Oct-07 21:00N 56°07' W 003°04'0 0.0
2017-Oct-07 20:30N 56°07' W 003°04'0 0.0
2017-Oct-07 20:00N 56°07' W 003°04'0 0.0
2017-Oct-07 19:30N 56°07' W 003°04'0 0.0
2017-Oct-07 19:00N 56°07' W 003°04'0 0.0
2017-Oct-07 18:30N 56°07' W 003°04'0 0.0
2017-Oct-07 18:00N 56°07' W 003°04'0 0.1
2017-Oct-07 17:30N 56°07' W 003°04'0 0.0
2017-Oct-07 17:00N 56°07' W 003°04'0 0.1
2017-Oct-07 16:30N 56°07' W 003°04'0 0.1
2017-Oct-07 16:00N 56°07' W 003°04'0 0.1
2017-Oct-07 15:30N 56°07' W 003°04'0 0.0
2017-Oct-07 15:00N 56°07' W 003°04'0 0.0
2017-Oct-07 14:30N 56°07' W 003°04'0 0.0
2017-Oct-07 14:00N 56°07' W 003°04'0 0.1
2017-Oct-07 13:30N 56°07' W 003°04'0 0.0
2017-Oct-07 13:00N 56°07' W 003°04'0 0.0
2017-Oct-07 12:30N 56°07' W 003°04'0 0.0
2017-Oct-07 12:00N 56°07' W 003°04'0 0.0
2017-Oct-07 11:30N 56°07' W 003°04'0 0.0
2017-Oct-07 11:00N 56°07' W 003°04'0 0.0
2017-Oct-07 10:30N 56°07' W 003°04'0 0.0
2017-Oct-07 10:00N 56°07' W 003°04'0 0.0
2017-Oct-07 09:30N 56°07' W 003°04'0 0.0
2017-Oct-07 09:00N 56°07' W 003°04'0 0.0
2017-Oct-07 08:30N 56°07' W 003°04'0 0.1
2017-Oct-07 08:00N 56°07' W 003°04'0 0.0
2017-Oct-07 07:30N 56°07' W 003°04'0 0.0
2017-Oct-07 07:00N 56°07' W 003°04'0 0.0
2017-Oct-07 06:30N 56°07' W 003°04'0 0.0
2017-Oct-07 06:00N 56°07' W 003°04'0 0.0
2017-Oct-07 05:30N 56°07' W 003°04'0 0.0
2017-Oct-07 05:00N 56°07' W 003°04'0 0.0
2017-Oct-07 04:30N 56°07' W 003°04'0 0.0
2017-Oct-07 04:00N 56°07' W 003°04'0 0.0
2017-Oct-07 03:30N 56°07' W 003°04'0 0.0
2017-Oct-07 03:00N 56°07' W 003°04'0 0.0
2017-Oct-07 02:30N 56°07' W 003°04'0 0.0
2017-Oct-07 01:57N 56°07' W 003°04'0 0.1
2017-Oct-07 01:30N 56°07' W 003°04'0 0.1
2017-Oct-07 01:00N 56°07' W 003°04'  
Track history (hours):
 
Tides and Currents Weather Stations Pressure Air Temp Water Temp Dewpoint Dewpoint Depression Visibility Wind Speed Wind Dir Waves Ship Positions

Bastogne

Last reported at 2017-Oct-17 00:55 UTC. Time now 2017-Oct-17 01:03 UTC.
Position N 47°36' W 007°22'.

Length 175 m; draft 8.7 m.

Type: Tanker. MMSI: 205612000.

Date/timePositionNaut miles runAvg speedWind from/ knotsBaromVisibWave heightAir tempDewpointWater temp
2017-Oct-17 00:55N 47°36' W 007°22'4410.7
2017-Oct-16 20:50N 47°60' W 006°28'411.1
2017-Oct-16 20:26N 48°02' W 006°22'104 8.8
2017-Oct-16 08:32N 49°35' W 005°10'013.4
2017-Oct-16 08:30N 49°35' W 005°10'813.3
2017-Oct-16 07:54N 49°43' W 005°09'1714.7
2017-Oct-16 06:43N 49°50' W 005°34'514.6
2017-Oct-16 06:20N 49°52' W 005°42'1114.1
2017-Oct-16 05:32N 49°55' W 005°59'213.8
2017-Oct-16 05:23N 49°57' W 006°01'714.5
2017-Oct-16 04:52N 50°04' W 006°01'514.4
2017-Oct-16 04:30N 50°10' W 006°01'714.6
2017-Oct-16 04:00N 50°17' W 006°01'714.6
2017-Oct-16 03:30N 50°24' W 005°60'714.9
2017-Oct-16 03:01N 50°31' W 005°55'815.1
2017-Oct-16 02:30N 50°38' W 005°51'815.3
2017-Oct-16 02:00N 50°45' W 005°46'815.6
2017-Oct-16 01:30N 50°52' W 005°42'1315.5
2017-Oct-16 00:40N 51°05' W 005°34'315.6
2017-Oct-16 00:31N 51°07' W 005°33'815.8
2017-Oct-16 00:00N 51°14' W 005°28'815.9
2017-Oct-15 23:31N 51°21' W 005°23'815.9
2017-Oct-15 23:01N 51°29' W 005°18'816.0
2017-Oct-15 22:31N 51°36' W 005°13'612.3
2017-Oct-15 22:00N 51°42' W 005°08'4 8.6
2017-Oct-15 21:30N 51°42' W 005°02'0 0.2
2017-Oct-15 20:59N 51°42' W 005°02'0 0.0
2017-Oct-15 20:29N 51°42' W 005°02'0 0.0
2017-Oct-15 19:59N 51°42' W 005°02'0 0.0
2017-Oct-15 19:26N 51°42' W 005°02'0 0.0
2017-Oct-15 18:59N 51°42' W 005°02'0 0.0
2017-Oct-15 18:29N 51°42' W 005°02'0 0.0
2017-Oct-15 17:59N 51°42' W 005°02'0 0.0
2017-Oct-15 17:29N 51°42' W 005°02'0 0.0
2017-Oct-15 16:59N 51°42' W 005°02'0 0.0
2017-Oct-15 16:29N 51°42' W 005°02'0 0.0
2017-Oct-15 15:59N 51°42' W 005°02'0 0.0
2017-Oct-15 15:29N 51°42' W 005°02'0 0.0
2017-Oct-15 14:53N 51°42' W 005°02'0 0.0
2017-Oct-15 13:59N 51°42' W 005°02'0 0.0
2017-Oct-15 13:29N 51°42' W 005°02'0 0.0
2017-Oct-15 12:59N 51°42' W 005°02'0 0.0
2017-Oct-15 12:29N 51°42' W 005°02'0 0.0
2017-Oct-15 11:56N 51°42' W 005°02'0 0.0
2017-Oct-15 11:29N 51°42' W 005°02'0 0.0
2017-Oct-15 10:59N 51°42' W 005°01'0 0.0
2017-Oct-15 10:29N 51°42' W 005°02'0 0.0
2017-Oct-15 09:59N 51°42' W 005°01'0 0.0
2017-Oct-15 09:29N 51°42' W 005°02'0 0.0
2017-Oct-15 08:59N 51°42' W 005°02'0 0.0
2017-Oct-15 08:29N 51°42' W 005°02'0 0.0
2017-Oct-15 07:53N 51°42' W 005°02'0 0.0
2017-Oct-15 07:26N 51°42' W 005°02'0 0.0
2017-Oct-15 06:56N 51°42' W 005°02'0 0.0
2017-Oct-15 06:29N 51°42' W 005°02'0 0.0
2017-Oct-15 05:59N 51°42' W 005°02'0 0.0
2017-Oct-15 05:29N 51°42' W 005°02'0 0.0
2017-Oct-15 04:56N 51°42' W 005°02'0 0.0
2017-Oct-15 04:29N 51°42' W 005°02'0 0.0
2017-Oct-15 03:59N 51°42' W 005°02'0 0.0
2017-Oct-15 03:31N 51°42' W 005°02'1 2.2
2017-Oct-15 03:01N 51°42' W 005°03'4 7.9
2017-Oct-15 02:31N 51°41' W 005°09'510.0
2017-Oct-15 02:00N 51°37' W 005°14'4 6.9
2017-Oct-15 01:30N 51°34' W 005°18'2 4.9
2017-Oct-15 01:00N 51°33' W 005°21'1 2.4
2017-Oct-15 00:30N 51°34' W 005°23'3 5.1
2017-Oct-15 00:00N 51°32' W 005°22'3 5.3
2017-Oct-14 23:30N 51°29' W 005°22'5 9.8
2017-Oct-14 22:59N 51°24' W 005°22'815.7
2017-Oct-14 22:30N 51°16' W 005°24'816.2
2017-Oct-14 22:00N 51°09' W 005°28'816.0
2017-Oct-14 21:30N 51°01' W 005°32'816.0
2017-Oct-14 20:59N 50°53' W 005°36'816.0
2017-Oct-14 20:30N 50°46' W 005°39'815.9
2017-Oct-14 20:00N 50°38' W 005°43'815.9
2017-Oct-14 19:30N 50°31' W 005°47'815.6
2017-Oct-14 19:00N 50°23' W 005°51'815.2
2017-Oct-14 18:30N 50°16' W 005°53'815.2
2017-Oct-14 18:00N 50°08' W 005°53'815.4
2017-Oct-14 17:30N 50°01' W 005°53'814.8
2017-Oct-14 16:59N 49°53' W 005°50'715.5
2017-Oct-14 16:30N 49°53' W 005°38'815.3
2017-Oct-14 16:00N 49°53' W 005°26'815.1
2017-Oct-14 15:30N 49°53' W 005°14'815.4
2017-Oct-14 15:00N 49°53' W 005°02'815.4
2017-Oct-14 14:30N 49°53' W 004°50'815.3
2017-Oct-14 14:00N 49°54' W 004°39'815.1
2017-Oct-14 13:30N 49°55' W 004°27'815.2
2017-Oct-14 13:00N 49°55' W 004°15'815.2
2017-Oct-14 12:30N 49°55' W 004°03'815.1
2017-Oct-14 12:00N 49°56' W 003°52'815.1
2017-Oct-14 11:30N 49°57' W 003°40'815.6
2017-Oct-14 11:00N 49°58' W 003°28'816.0
2017-Oct-14 10:30N 49°58' W 003°16'816.3
2017-Oct-14 10:00N 49°58' W 003°03'816.5
2017-Oct-14 09:30N 49°60' W 002°50'917.2
2017-Oct-14 09:00N 50°03' W 002°38'917.7
2017-Oct-14 08:28N 50°05' W 002°24'817.7
2017-Oct-14 08:00N 50°08' W 002°11'1017.5
2017-Oct-14 07:25N 50°10' W 001°56'817.1
2017-Oct-14 06:58N 50°12' W 001°44'816.7
2017-Oct-14 06:31N 50°15' W 001°33'816.2
2017-Oct-14 06:00N 50°17' W 001°20'815.7
2017-Oct-14 05:31N 50°19' W 001°09'815.1
2017-Oct-14 04:57N 50°21' W 000°56'614.6
2017-Oct-14 04:30N 50°23' W 000°46'714.3
2017-Oct-14 04:00N 50°25' W 000°35'714.4
2017-Oct-14 03:30N 50°27' W 000°25'714.6
2017-Oct-14 03:00N 50°29' W 000°14'714.7
2017-Oct-14 02:30N 50°31' W 000°02'714.8
2017-Oct-14 02:00N 50°33' E 000°09'815.1
2017-Oct-14 01:30N 50°35' E 000°20'815.4
2017-Oct-14 01:00N 50°38' E 000°32'815.8
2017-Oct-14 00:30N 50°42' E 000°42'816.3
2017-Oct-14 00:00N 50°46' E 000°53'816.5
2017-Oct-13 23:30N 50°52' E 001°03'816.5
2017-Oct-13 23:00N 50°57' E 001°13'816.2
2017-Oct-13 22:30N 51°02' E 001°23'815.7
2017-Oct-13 22:00N 51°07' E 001°33'714.8
2017-Oct-13 21:30N 51°12' E 001°42'714.3
2017-Oct-13 21:00N 51°17' E 001°49'714.2
2017-Oct-13 20:30N 51°24' E 001°54'714.1
2017-Oct-13 20:00N 51°30' E 001°60'714.1
2017-Oct-13 19:30N 51°35' E 002°07'714.2
2017-Oct-13 19:00N 51°40' E 002°15'1114.3
2017-Oct-13 18:16N 51°48' E 002°27'414.4
2017-Oct-13 17:59N 51°51' E 002°31'714.9
2017-Oct-13 17:30N 51°58' E 002°36'16313.9
2017-Oct-13 05:46N 54°28' E 000°49'414.8
2017-Oct-13 05:30N 54°30' E 000°44'1914.9
2017-Oct-13 04:14N 54°43' E 000°20'414.8
2017-Oct-13 03:58N 54°46' E 000°15'714.7
2017-Oct-13 03:30N 54°51' E 000°06'3614.8
2017-Oct-13 01:05N 55°15' W 000°40'814.9
2017-Oct-13 00:34N 55°20' W 000°50'114.8
2017-Oct-13 00:30N 55°21' W 000°51'915.0
2017-Oct-12 23:54N 55°27' W 001°03'615.4
2017-Oct-12 23:30N 55°31' W 001°11'815.5
2017-Oct-12 23:00N 55°36' W 001°21'815.8
2017-Oct-12 22:30N 55°42' W 001°31'815.8
2017-Oct-12 22:00N 55°47' W 001°41'816.1
2017-Oct-12 21:30N 55°53' W 001°52'816.1
2017-Oct-12 21:00N 55°58' W 002°03'816.4
2017-Oct-12 20:30N 56°03' W 002°14'815.9
2017-Oct-12 20:00N 56°06' W 002°28'816.3
2017-Oct-12 19:30N 56°06' W 002°42'816.1
2017-Oct-12 19:00N 56°04' W 002°56'612.1
2017-Oct-12 18:30N 56°03' W 003°07'4 8.5
2017-Oct-12 18:00N 56°02' W 003°14'2 0.3
2017-Oct-12 08:41N 56°02' W 003°19'0 0.0
2017-Oct-12 05:23N 56°02' W 003°19'0 0.0
2017-Oct-12 04:53N 56°02' W 003°19'0 0.0
2017-Oct-12 04:23N 56°02' W 003°19'0 0.0
2017-Oct-12 03:59N 56°02' W 003°19'0 0.0
2017-Oct-12 03:20N 56°02' W 003°19'0 0.0
2017-Oct-12 02:59N 56°02' W 003°19'0 0.0
2017-Oct-12 02:17N 56°02' W 003°19'1 0.0
2017-Oct-11 00:00N 56°01' W 003°18'4 8.1
2017-Oct-10 23:30N 56°03' W 003°11'4 8.7
2017-Oct-10 23:00N 56°05' W 003°05'2 3.4
2017-Oct-10 22:30N 56°07' W 003°04'0 0.3
2017-Oct-10 22:00N 56°07' W 003°04'0 0.0
2017-Oct-10 21:30N 56°07' W 003°04'0 0.0
2017-Oct-10 21:00N 56°07' W 003°04'0 0.0
2017-Oct-10 20:30N 56°07' W 003°04'0 0.0
2017-Oct-10 20:00N 56°07' W 003°04'0 0.0
2017-Oct-10 19:30N 56°07' W 003°04'0 0.0
2017-Oct-10 19:00N 56°07' W 003°04'0 0.0
2017-Oct-10 18:30N 56°07' W 003°04'0 0.0
2017-Oct-10 18:00N 56°07' W 003°04'0 0.0
2017-Oct-10 17:30N 56°07' W 003°04'0 0.0
2017-Oct-10 17:00N 56°07' W 003°04'0 0.0
2017-Oct-10 16:30N 56°07' W 003°04'0 0.1
2017-Oct-10 16:00N 56°07' W 003°04'0 0.0
2017-Oct-10 15:30N 56°07' W 003°04'0 0.0
2017-Oct-10 15:00N 56°07' W 003°04'0 0.0
2017-Oct-10 14:00N 56°07' W 003°04'0 0.0
2017-Oct-10 13:30N 56°07' W 003°04'0 0.0
2017-Oct-10 13:00N 56°07' W 003°04'0 0.0
2017-Oct-10 12:30N 56°07' W 003°04'0 0.0
2017-Oct-10 12:00N 56°07' W 003°04'0 0.0
2017-Oct-10 11:30N 56°07' W 003°04'0 0.0
2017-Oct-10 11:00N 56°07' W 003°04'0 0.0
2017-Oct-10 10:30N 56°07' W 003°04'0 0.1
2017-Oct-10 10:00N 56°07' W 003°04'0 0.0
2017-Oct-10 09:30N 56°07' W 003°04'0 0.0
2017-Oct-10 09:00N 56°07' W 003°04'0 0.0
2017-Oct-10 08:30N 56°07' W 003°04'0 0.0
2017-Oct-10 08:00N 56°07' W 003°04'0 0.0
2017-Oct-10 07:27N 56°07' W 003°04'0 0.0
2017-Oct-10 07:00N 56°07' W 003°04'0 0.1
2017-Oct-10 06:30N 56°07' W 003°04'0 0.0
2017-Oct-10 06:00N 56°07' W 003°04'0 0.1
2017-Oct-10 05:30N 56°07' W 003°04'0 0.0
2017-Oct-10 05:00N 56°07' W 003°04'0 0.1
2017-Oct-10 04:30N 56°07' W 003°04'0 0.0
2017-Oct-10 04:00N 56°07' W 003°04'0 0.1
2017-Oct-10 03:30N 56°07' W 003°04'0 0.0
2017-Oct-10 03:00N 56°07' W 003°04'0 0.0
2017-Oct-10 02:30N 56°07' W 003°04'0 0.0
2017-Oct-10 02:00N 56°07' W 003°04'0 0.0
2017-Oct-10 01:30N 56°07' W 003°04'0 0.0
2017-Oct-10 01:00N 56°07' W 003°04'0 0.0
2017-Oct-10 00:30N 56°07' W 003°04'0 0.0
2017-Oct-10 00:00N 56°07' W 003°04'0 0.0
2017-Oct-09 23:30N 56°07' W 003°04'0 0.0
2017-Oct-09 23:00N 56°07' W 003°04'0 0.1
2017-Oct-09 22:30N 56°07' W 003°04'0 0.1
2017-Oct-09 22:00N 56°07' W 003°04'0 0.0
2017-Oct-09 21:30N 56°07' W 003°04'0 0.1
2017-Oct-09 21:00N 56°07' W 003°04'0 0.0
2017-Oct-09 20:30N 56°07' W 003°04'0 0.0
2017-Oct-09 20:00N 56°07' W 003°04'0 0.0
2017-Oct-09 19:30N 56°07' W 003°04'0 0.0
2017-Oct-09 19:00N 56°07' W 003°04'0 0.0
2017-Oct-09 18:30N 56°07' W 003°04'0 0.0
2017-Oct-09 18:00N 56°07' W 003°04'0 0.0
2017-Oct-09 17:30N 56°07' W 003°04'0 0.0
2017-Oct-09 17:00N 56°07' W 003°04'0 0.1
2017-Oct-09 16:30N 56°07' W 003°04'0 0.0
2017-Oct-09 16:00N 56°07' W 003°04'0 0.0
2017-Oct-09 15:30N 56°07' W 003°04'0 0.0
2017-Oct-09 15:00N 56°07' W 003°04'0 0.0
2017-Oct-09 14:30N 56°07' W 003°04'0 0.1
2017-Oct-09 14:00N 56°07' W 003°04'0 0.1
2017-Oct-09 13:30N 56°07' W 003°04'0 0.0
2017-Oct-09 13:00N 56°07' W 003°04'0 0.0
2017-Oct-09 12:30N 56°07' W 003°04'0 0.0
2017-Oct-09 12:00N 56°07' W 003°04'0 0.0
2017-Oct-09 11:30N 56°07' W 003°04'0 0.0
2017-Oct-09 11:00N 56°07' W 003°04'0 0.0
2017-Oct-09 10:30N 56°07' W 003°04'0 0.0
2017-Oct-09 10:00N 56°07' W 003°04'0 0.0
2017-Oct-09 09:30N 56°07' W 003°04'0 0.0
2017-Oct-09 09:00N 56°07' W 003°04'0 0.0
2017-Oct-09 08:30N 56°07' W 003°04'0 0.0
2017-Oct-09 08:00N 56°07' W 003°04'0 0.0
2017-Oct-09 07:30N 56°07' W 003°04'0 0.0
2017-Oct-09 07:00N 56°07' W 003°04'0 0.0
2017-Oct-09 06:30N 56°07' W 003°04'0 0.0
2017-Oct-09 06:00N 56°07' W 003°04'0 0.0
2017-Oct-09 05:30N 56°07' W 003°04'0 0.0
2017-Oct-09 05:00N 56°07' W 003°04'0 0.0
2017-Oct-09 04:30N 56°07' W 003°04'0 0.0
2017-Oct-09 04:00N 56°07' W 003°04'0 0.0
2017-Oct-09 03:30N 56°07' W 003°04'0 0.0
2017-Oct-09 03:00N 56°07' W 003°04'0 0.0
2017-Oct-09 02:30N 56°07' W 003°04'0 0.1
2017-Oct-09 02:00N 56°07' W 003°04'0 0.2
2017-Oct-09 01:30N 56°07' W 003°05'0 0.1
2017-Oct-09 01:00N 56°07' W 003°05'0 0.1
2017-Oct-09 00:30N 56°07' W 003°05'0 0.3
2017-Oct-09 00:00N 56°07' W 003°04'0 0.0
2017-Oct-08 23:30N 56°07' W 003°04'0 0.0
2017-Oct-08 23:00N 56°07' W 003°04'0 0.1
2017-Oct-08 22:30N 56°07' W 003°04'0 0.0
2017-Oct-08 22:00N 56°07' W 003°04'0 0.0
2017-Oct-08 21:30N 56°07' W 003°04'0 0.0
2017-Oct-08 21:00N 56°07' W 003°04'0 0.0
2017-Oct-08 20:30N 56°07' W 003°04'0 0.0
2017-Oct-08 20:00N 56°07' W 003°04'0 0.0
2017-Oct-08 19:30N 56°07' W 003°04'0 0.0
2017-Oct-08 19:00N 56°07' W 003°04'0 0.0
2017-Oct-08 18:30N 56°07' W 003°04'0 0.0
2017-Oct-08 18:00N 56°07' W 003°04'0 0.0
2017-Oct-08 17:30N 56°07' W 003°04'0 0.0
2017-Oct-08 17:00N 56°07' W 003°04'0 0.0
2017-Oct-08 16:30N 56°07' W 003°04'0 0.0
2017-Oct-08 16:00N 56°07' W 003°04'0 0.0
2017-Oct-08 15:30N 56°07' W 003°04'0 0.1
2017-Oct-08 15:00N 56°07' W 003°04'0 0.1
2017-Oct-08 14:30N 56°07' W 003°04'0 0.0
2017-Oct-08 14:00N 56°07' W 003°04'0 0.1
2017-Oct-08 13:30N 56°07' W 003°04'0 0.1
2017-Oct-08 13:00N 56°07' W 003°04'0 0.0
2017-Oct-08 12:30N 56°07' W 003°04'0 0.2
2017-Oct-08 12:00N 56°07' W 003°04'0 0.1
2017-Oct-08 11:30N 56°07' W 003°04'0 0.1
2017-Oct-08 11:00N 56°07' W 003°04'0 0.0
2017-Oct-08 10:30N 56°07' W 003°04'0 0.1
2017-Oct-08 10:00N 56°07' W 003°04'0 0.1
2017-Oct-08 09:30N 56°07' W 003°04'0 0.0
2017-Oct-08 09:00N 56°07' W 003°04'0 0.0
2017-Oct-08 08:30N 56°07' W 003°04'0 0.0
2017-Oct-08 08:00N 56°07' W 003°04'0 0.0
2017-Oct-08 07:30N 56°07' W 003°04'0 0.0
2017-Oct-08 07:00N 56°07' W 003°04'0 0.0
2017-Oct-08 06:30N 56°07' W 003°04'0 0.0
2017-Oct-08 06:00N 56°07' W 003°04'0 0.0
2017-Oct-08 05:30N 56°07' W 003°04'0 0.0
2017-Oct-08 05:00N 56°07' W 003°04'0 0.0
2017-Oct-08 04:30N 56°07' W 003°04'0 0.0
2017-Oct-08 04:00N 56°07' W 003°04'0 0.0
2017-Oct-08 03:27N 56°07' W 003°04'0 0.0
2017-Oct-08 03:00N 56°07' W 003°04'0 0.1
2017-Oct-08 02:30N 56°07' W 003°04'0 0.1
2017-Oct-08 02:00N 56°07' W 003°04'0 0.1
2017-Oct-08 01:30N 56°07' W 003°04'0 0.0
2017-Oct-08 01:00N 56°07' W 003°04'0 0.0
2017-Oct-08 00:30N 56°07' W 003°04'0 0.2
2017-Oct-08 00:00N 56°07' W 003°04'0 0.1
2017-Oct-07 23:30N 56°07' W 003°04'0 0.3
2017-Oct-07 23:00N 56°07' W 003°04'0 0.1
2017-Oct-07 22:30N 56°07' W 003°04'0 0.1
2017-Oct-07 22:00N 56°07' W 003°04'0 0.0
2017-Oct-07 21:30N 56°07' W 003°04'0 0.0
2017-Oct-07 21:00N 56°07' W 003°04'0 0.0
2017-Oct-07 20:30N 56°07' W 003°04'0 0.0
2017-Oct-07 20:00N 56°07' W 003°04'0 0.0
2017-Oct-07 19:30N 56°07' W 003°04'0 0.0
2017-Oct-07 19:00N 56°07' W 003°04'0 0.0
2017-Oct-07 18:30N 56°07' W 003°04'0 0.0
2017-Oct-07 18:00N 56°07' W 003°04'0 0.1
2017-Oct-07 17:30N 56°07' W 003°04'0 0.0
2017-Oct-07 17:00N 56°07' W 003°04'0 0.1
2017-Oct-07 16:30N 56°07' W 003°04'0 0.1
2017-Oct-07 16:00N 56°07' W 003°04'0 0.1
2017-Oct-07 15:30N 56°07' W 003°04'0 0.0
2017-Oct-07 15:00N 56°07' W 003°04'0 0.0
2017-Oct-07 14:30N 56°07' W 003°04'0 0.0
2017-Oct-07 14:00N 56°07' W 003°04'0 0.1
2017-Oct-07 13:30N 56°07' W 003°04'0 0.0
2017-Oct-07 13:00N 56°07' W 003°04'0 0.0
2017-Oct-07 12:30N 56°07' W 003°04'0 0.0
2017-Oct-07 12:00N 56°07' W 003°04'0 0.0
2017-Oct-07 11:30N 56°07' W 003°04'0 0.0
2017-Oct-07 11:00N 56°07' W 003°04'0 0.0
2017-Oct-07 10:30N 56°07' W 003°04'0 0.0
2017-Oct-07 10:00N 56°07' W 003°04'0 0.0
2017-Oct-07 09:30N 56°07' W 003°04'0 0.0
2017-Oct-07 09:00N 56°07' W 003°04'0 0.0
2017-Oct-07 08:30N 56°07' W 003°04'0 0.1
2017-Oct-07 08:00N 56°07' W 003°04'0 0.0
2017-Oct-07 07:30N 56°07' W 003°04'0 0.0
2017-Oct-07 07:00N 56°07' W 003°04'0 0.0
2017-Oct-07 06:30N 56°07' W 003°04'0 0.0
2017-Oct-07 06:00N 56°07' W 003°04'0 0.0
2017-Oct-07 05:30N 56°07' W 003°04'0 0.0
2017-Oct-07 05:00N 56°07' W 003°04'0 0.0
2017-Oct-07 04:30N 56°07' W 003°04'0 0.0
2017-Oct-07 04:00N 56°07' W 003°04'0 0.0
2017-Oct-07 03:30N 56°07' W 003°04'0 0.0
2017-Oct-07 03:00N 56°07' W 003°04'0 0.0
2017-Oct-07 02:30N 56°07' W 003°04'0 0.0
2017-Oct-07 01:57N 56°07' W 003°04'0 0.1
2017-Oct-07 01:30N 56°07' W 003°04'0 0.1
2017-Oct-07 01:00N 56°07' W 003°04'  

Dump ship's entire track history